createdAt,value
2023-05-08T00:01:24.578Z,4.70
2023-05-08T00:03:52.370Z,3.95
2023-05-08T00:06:19.108Z,5.13
2023-05-08T00:08:45.640Z,3.92
2023-05-08T00:11:12.042Z,4.88
2023-05-08T00:13:38.669Z,4.10
2023-05-08T00:16:05.279Z,5.10
2023-05-08T00:18:31.727Z,4.55
2023-05-08T00:20:58.189Z,5.78
2023-05-08T00:23:24.566Z,4.95
2023-05-08T00:25:51.103Z,4.55
2023-05-08T00:28:17.581Z,5.50
2023-05-08T00:30:44.363Z,4.80
2023-05-08T00:33:11.621Z,4.57
2023-05-08T00:35:38.203Z,4.32
2023-05-08T00:38:04.617Z,4.57
2023-05-08T00:40:31.136Z,4.55
2023-05-08T00:42:57.606Z,4.95
2023-05-08T00:45:24.588Z,5.32
2023-05-08T00:47:51.365Z,4.97
2023-05-08T00:50:18.769Z,5.18
2023-05-08T00:52:46.306Z,5.45
2023-05-08T00:55:12.974Z,5.07
2023-05-08T00:57:39.991Z,5.28
2023-05-08T01:00:07.710Z,5.30
2023-05-08T01:02:35.790Z,5.63
2023-05-08T01:05:03.780Z,4.80
2023-05-08T01:07:30.304Z,6.05
2023-05-08T01:09:56.889Z,5.90
2023-05-08T01:12:38.828Z,4.88
2023-05-08T01:15:17.402Z,4.93
2023-05-08T01:18:20.230Z,4.80
2023-05-08T01:20:59.515Z,5.10
2023-05-08T01:23:52.123Z,5.22
2023-05-08T01:26:47.686Z,6.57
2023-05-08T01:29:40.587Z,6.13
2023-05-08T01:32:23.754Z,6.22
2023-05-08T01:35:07.869Z,6.35
2023-05-08T01:37:49.657Z,6.75
2023-05-08T01:40:51.481Z,5.90
2023-05-08T01:43:33.182Z,7.10
2023-05-08T01:46:05.665Z,5.43
2023-05-08T01:48:35.162Z,6.00
2023-05-08T01:51:08.341Z,5.78
2023-05-08T01:53:39.338Z,5.90
2023-05-08T01:56:11.352Z,6.68
2023-05-08T01:58:39.880Z,7.63
2023-05-08T02:01:08.693Z,5.72
2023-05-08T02:03:37.952Z,6.10
2023-05-08T02:06:08.126Z,9.02
2023-05-08T02:08:36.050Z,6.07
2023-05-08T02:11:05.706Z,5.72
2023-05-08T02:13:35.146Z,5.70
2023-05-08T02:16:03.131Z,6.00
2023-05-08T02:18:31.824Z,7.63
2023-05-08T02:21:01.256Z,6.75
2023-05-08T02:23:28.507Z,6.57
2023-05-08T02:25:56.397Z,7.70
2023-05-08T02:28:24.458Z,7.25
2023-05-08T02:30:52.621Z,7.75
2023-05-08T02:33:20.667Z,7.53
2023-05-08T02:35:50.518Z,7.70
2023-05-08T02:38:21.214Z,8.88
2023-05-08T02:40:52.205Z,7.40
2023-05-08T02:43:19.106Z,7.20
2023-05-08T02:45:52.334Z,8.20
2023-05-08T02:48:56.069Z,7.47
2023-05-08T02:52:18.392Z,7.80
2023-05-08T02:55:00.251Z,7.85
2023-05-08T02:57:39.811Z,7.13
2023-05-08T03:00:09.574Z,7.13
2023-05-08T03:02:43.013Z,7.25
2023-05-08T03:05:49.299Z,6.82
2023-05-08T03:08:19.483Z,6.97
2023-05-08T03:10:50.956Z,7.75
2023-05-08T03:13:20.230Z,6.18
2023-05-08T03:15:57.473Z,6.28
2023-05-08T03:18:31.152Z,6.15
2023-05-08T03:21:00.253Z,6.05
2023-05-08T03:23:30.566Z,5.80
2023-05-08T03:25:59.180Z,6.32
2023-05-08T03:28:27.811Z,6.50
2023-05-08T03:30:57.342Z,6.45
2023-05-08T03:33:24.859Z,6.03
2023-05-08T03:35:53.651Z,8.55
2023-05-08T03:38:22.144Z,7.43
2023-05-08T03:40:49.287Z,6.72
2023-05-08T03:43:17.422Z,6.40
2023-05-08T03:45:45.475Z,5.95
2023-05-08T03:48:14.069Z,6.90
2023-05-08T03:50:41.664Z,7.03
2023-05-08T03:53:09.805Z,7.38
2023-05-08T03:55:37.469Z,7.28
2023-05-08T03:58:18.449Z,10.10
2023-05-08T04:00:56.839Z,7.78
2023-05-08T04:03:38.072Z,8.77
2023-05-08T04:06:15.976Z,10.77
2023-05-08T04:09:19.602Z,7.55
2023-05-08T04:11:59.251Z,6.85
2023-05-08T04:14:30.439Z,7.18
2023-05-08T04:17:05.723Z,6.78
2023-05-08T04:19:36.193Z,7.75
2023-05-08T04:22:08.707Z,7.25
2023-05-08T04:24:43.071Z,8.35
2023-05-08T04:27:10.148Z,10.05
2023-05-08T04:29:37.380Z,6.85
2023-05-08T04:32:05.908Z,7.18
2023-05-08T04:34:34.418Z,6.90
2023-05-08T04:37:01.174Z,7.22
2023-05-08T04:39:28.070Z,7.13
2023-05-08T04:41:55.713Z,7.72
2023-05-08T04:44:22.307Z,7.22
2023-05-08T04:46:50.122Z,7.38
2023-05-08T04:49:17.229Z,7.60
2023-05-08T04:51:43.658Z,7.22
2023-05-08T04:54:10.111Z,7.25
2023-05-08T04:56:36.943Z,7.57
2023-05-08T04:59:03.472Z,8.02
2023-05-08T05:01:29.923Z,6.82
2023-05-08T05:03:56.441Z,7.13
2023-05-08T05:06:22.953Z,6.85
2023-05-08T05:08:49.359Z,7.80
2023-05-08T05:11:15.829Z,8.90
2023-05-08T05:13:42.368Z,7.90
2023-05-08T05:16:09.060Z,8.25
2023-05-08T05:18:35.572Z,8.13
2023-05-08T05:21:02.138Z,8.20
2023-05-08T05:23:29.630Z,8.48
2023-05-08T05:25:56.360Z,8.52
2023-05-08T05:28:22.833Z,8.57
2023-05-08T05:30:49.303Z,9.05
2023-05-08T05:33:15.778Z,8.60
2023-05-08T05:35:44.441Z,8.98
2023-05-08T05:38:11.336Z,7.75
2023-05-08T05:40:37.905Z,7.82
2023-05-08T05:43:04.375Z,10.65
2023-05-08T05:45:33.205Z,7.00
2023-05-08T05:48:00.476Z,7.93
2023-05-08T05:50:28.214Z,8.02
2023-05-08T05:52:56.316Z,10.07
2023-05-08T05:55:23.078Z,8.85
2023-05-08T05:57:49.987Z,8.15
2023-05-08T06:00:17.957Z,11.63
2023-05-08T06:02:51.544Z,12.10
2023-05-08T06:05:19.586Z,10.65
2023-05-08T06:07:46.364Z,11.85
2023-05-08T06:10:13.296Z,12.38
2023-05-08T06:12:39.959Z,14.65
2023-05-08T06:15:07.871Z,20.70
2023-05-08T06:17:34.451Z,21.60
2023-05-08T06:20:01.400Z,23.38
2023-05-08T06:22:29.257Z,19.92
2023-05-08T06:24:57.261Z,19.17
2023-05-08T06:27:23.870Z,20.27
2023-05-08T06:29:52.901Z,24.20
2023-05-08T06:32:20.325Z,24.38
2023-05-08T06:34:46.809Z,27.65
2023-05-08T06:37:13.265Z,27.50
2023-05-08T06:39:39.762Z,27.95
2023-05-08T06:42:08.063Z,25.85
2023-05-08T06:44:38.323Z,26.15
2023-05-08T06:47:04.873Z,26.55
2023-05-08T06:49:31.332Z,24.17
2023-05-08T06:51:58.199Z,21.92
2023-05-08T06:54:24.900Z,23.92
2023-05-08T06:56:52.784Z,22.80
2023-05-08T06:59:19.228Z,25.23
2023-05-08T07:01:45.742Z,23.42
2023-05-08T07:04:12.432Z,23.17
2023-05-08T07:06:38.904Z,22.90
2023-05-08T07:09:05.350Z,24.33
2023-05-08T07:11:31.760Z,21.92
2023-05-08T07:13:58.227Z,27.35
2023-05-08T07:16:24.757Z,29.45
2023-05-08T07:18:51.207Z,28.65
2023-05-08T07:21:20.105Z,29.58
2023-05-08T07:23:47.927Z,29.67
2023-05-08T07:26:14.569Z,28.73
2023-05-08T07:28:41.017Z,29.65
2023-05-08T07:31:07.525Z,30.52
2023-05-08T07:33:34.573Z,30.50
2023-05-08T07:36:01.322Z,31.63
2023-05-08T07:38:27.766Z,29.70
2023-05-08T07:40:57.156Z,29.27
2023-05-08T07:43:24.137Z,26.20
2023-05-08T07:45:51.173Z,25.13
2023-05-08T07:48:17.575Z,24.52
2023-05-08T07:50:44.712Z,23.67
2023-05-08T07:53:11.224Z,25.60
2023-05-08T07:55:37.594Z,23.42
2023-05-08T07:58:04.034Z,23.40
2023-05-08T08:00:31.405Z,26.60
2023-05-08T08:02:58.084Z,25.70
2023-05-08T08:05:24.899Z,22.85
2023-05-08T08:07:51.382Z,22.75
2023-05-08T08:10:17.878Z,21.90
2023-05-08T08:12:44.395Z,22.05
2023-05-08T08:15:11.312Z,20.85
2023-05-08T08:17:38.096Z,24.27
2023-05-08T08:20:05.187Z,24.13
2023-05-08T08:22:31.632Z,22.48
2023-05-08T08:24:58.038Z,24.67
2023-05-08T08:27:24.479Z,25.63
2023-05-08T08:29:52.632Z,22.52
2023-05-08T08:32:25.205Z,22.13
2023-05-08T08:34:51.740Z,24.30
2023-05-08T08:37:18.656Z,25.83
2023-05-08T08:39:45.263Z,27.67
2023-05-08T08:42:12.342Z,25.90
2023-05-08T08:44:40.050Z,25.27
2023-05-08T08:47:10.301Z,25.02
2023-05-08T08:49:43.053Z,25.02
2023-05-08T08:52:21.341Z,25.35
2023-05-08T08:54:50.457Z,23.83
2023-05-08T08:57:18.974Z,26.30
2023-05-08T08:59:45.651Z,25.15
2023-05-08T09:02:17.720Z,24.90
2023-05-08T09:04:44.617Z,26.77
2023-05-08T09:07:12.352Z,22.50
2023-05-08T09:09:41.087Z,23.45
2023-05-08T09:12:07.849Z,23.88
2023-05-08T09:14:34.289Z,20.02
2023-05-08T09:17:00.875Z,18.48
2023-05-08T09:19:29.114Z,16.55
2023-05-08T09:21:59.576Z,14.75
2023-05-08T09:24:29.105Z,19.38
2023-05-08T09:26:57.200Z,18.90
2023-05-08T09:29:23.588Z,17.92
2023-05-08T09:31:52.214Z,19.55
2023-05-08T09:34:28.013Z,17.63
2023-05-08T09:37:14.895Z,18.73
2023-05-08T09:39:43.170Z,16.98
2023-05-08T09:42:10.068Z,18.15
2023-05-08T09:44:50.263Z,16.40
2023-05-08T09:47:21.974Z,17.23
2023-05-08T09:50:04.112Z,15.43
2023-05-08T09:52:31.865Z,13.95
2023-05-08T09:55:00.512Z,13.80
2023-05-08T09:57:27.522Z,14.43
2023-05-08T10:00:07.414Z,14.88
2023-05-08T10:02:34.556Z,15.52
2023-05-08T10:05:01.555Z,14.68
2023-05-08T10:07:33.179Z,12.25
2023-05-08T10:10:01.696Z,12.95
2023-05-08T10:12:29.570Z,12.15
2023-05-08T10:14:56.562Z,12.35
2023-05-08T10:17:47.701Z,13.85
2023-05-08T10:20:15.907Z,10.82
2023-05-08T10:22:43.811Z,11.52
2023-05-08T10:25:17.658Z,11.52
2023-05-08T10:28:13.320Z,12.73
2023-05-08T10:30:44.681Z,11.85
2023-05-08T10:33:15.290Z,12.82
2023-05-08T10:35:42.197Z,11.35
2023-05-08T10:38:09.690Z,11.57
2023-05-08T10:40:37.864Z,13.18
2023-05-08T10:43:06.941Z,13.70
2023-05-08T10:45:34.489Z,13.60
2023-05-08T10:48:13.954Z,15.18
2023-05-08T10:50:58.977Z,14.05
2023-05-08T10:53:38.832Z,13.98
2023-05-08T10:56:05.784Z,14.80
2023-05-08T10:58:34.222Z,14.27
2023-05-08T11:01:00.638Z,15.98
2023-05-08T11:03:32.782Z,14.70
2023-05-08T11:06:01.185Z,15.18
2023-05-08T11:08:29.427Z,14.32
2023-05-08T11:10:58.626Z,14.07
2023-05-08T11:13:33.546Z,15.13
2023-05-08T11:16:00.518Z,13.55
2023-05-08T11:18:32.522Z,14.25
2023-05-08T11:21:06.628Z,15.43
2023-05-08T11:23:34.569Z,14.10
2023-05-08T11:26:02.379Z,13.23
2023-05-08T11:28:33.301Z,13.77
2023-05-08T11:31:05.566Z,12.75
2023-05-08T11:33:33.683Z,11.90
2023-05-08T11:36:13.159Z,11.77
2023-05-08T11:38:40.819Z,12.00
2023-05-08T11:41:20.044Z,12.13
2023-05-08T11:44:04.831Z,12.52
2023-05-08T11:46:42.844Z,11.80
2023-05-08T11:49:16.782Z,11.43
2023-05-08T11:51:46.065Z,10.95
2023-05-08T11:54:18.264Z,11.63
2023-05-08T11:56:52.696Z,11.60
2023-05-08T11:59:19.581Z,10.30
2023-05-08T12:02:07.076Z,10.65
2023-05-08T12:04:47.172Z,12.10
2023-05-08T12:07:14.058Z,16.38
2023-05-08T12:09:40.723Z,14.30
2023-05-08T12:12:07.327Z,14.18
2023-05-08T12:14:34.678Z,14.75
2023-05-08T12:17:02.688Z,15.50
2023-05-08T12:19:29.179Z,15.63
2023-05-08T12:21:57.172Z,16.15
2023-05-08T12:24:26.080Z,17.52
2023-05-08T12:26:56.483Z,18.00
2023-05-08T12:29:24.161Z,15.70
2023-05-08T12:31:52.533Z,16.20
2023-05-08T12:34:20.249Z,16.15
2023-05-08T12:36:47.749Z,15.60
2023-05-08T12:39:16.412Z,15.70
2023-05-08T12:41:52.887Z,17.73
2023-05-08T12:44:24.031Z,16.38
2023-05-08T12:46:52.063Z,16.65
2023-05-08T12:49:29.901Z,15.73
2023-05-08T12:52:07.541Z,18.48
2023-05-08T12:54:36.153Z,17.90
2023-05-08T12:57:09.076Z,15.82
2023-05-08T12:59:35.617Z,18.00
2023-05-08T13:02:02.113Z,15.35
2023-05-08T13:04:29.842Z,18.35
2023-05-08T13:06:57.256Z,16.95
2023-05-08T13:09:24.098Z,19.13
2023-05-08T13:11:50.535Z,17.25
2023-05-08T13:14:16.929Z,18.65
2023-05-08T13:16:44.973Z,22.17
2023-05-08T13:19:11.675Z,23.05
2023-05-08T13:21:38.836Z,22.65
2023-05-08T13:24:05.589Z,25.17
2023-05-08T13:26:32.063Z,26.20
2023-05-08T13:28:58.464Z,28.65
2023-05-08T13:31:25.003Z,29.00
2023-05-08T13:33:51.464Z,28.58
2023-05-08T13:36:17.885Z,27.77
2023-05-08T13:38:44.323Z,28.65
2023-05-08T13:41:10.746Z,26.80
2023-05-08T13:43:37.136Z,25.20
2023-05-08T13:46:04.824Z,26.67
2023-05-08T13:48:33.305Z,26.98
2023-05-08T13:50:59.686Z,25.08
2023-05-08T13:53:26.451Z,24.95
2023-05-08T13:55:52.918Z,25.25
2023-05-08T13:58:19.340Z,26.83
2023-05-08T14:00:49.937Z,24.70
2023-05-08T14:03:16.464Z,28.77
2023-05-08T14:05:42.919Z,26.55
2023-05-08T14:08:10.866Z,22.55
2023-05-08T14:10:37.348Z,21.80
2023-05-08T14:13:03.929Z,20.67
2023-05-08T14:15:37.022Z,20.30
2023-05-08T14:18:04.282Z,20.50
2023-05-08T14:20:30.907Z,20.20
2023-05-08T14:23:00.028Z,22.52
2023-05-08T14:25:26.967Z,20.65
2023-05-08T14:27:53.520Z,19.90
2023-05-08T14:30:19.922Z,21.40
2023-05-08T14:32:46.622Z,20.40
2023-05-08T14:35:14.429Z,19.63
2023-05-08T14:37:41.030Z,21.58
2023-05-08T14:40:08.816Z,20.85
2023-05-08T14:42:36.254Z,18.98
2023-05-08T14:45:02.747Z,21.13
2023-05-08T14:47:30.090Z,16.88
2023-05-08T14:49:56.653Z,17.58
2023-05-08T14:52:23.085Z,17.15
2023-05-08T14:54:53.070Z,15.38
2023-05-08T14:57:20.626Z,14.80
2023-05-08T14:59:55.050Z,15.52
2023-05-08T15:02:23.447Z,13.70
2023-05-08T15:04:50.027Z,13.07
2023-05-08T15:07:16.428Z,13.18
2023-05-08T15:09:42.945Z,12.93
2023-05-08T15:12:09.483Z,12.77
2023-05-08T15:14:35.984Z,12.60
2023-05-08T15:17:02.619Z,11.40
2023-05-08T15:19:29.049Z,11.05
2023-05-08T15:21:55.551Z,13.05
2023-05-08T15:24:21.984Z,12.75
2023-05-08T15:26:48.436Z,11.80
2023-05-08T15:29:14.836Z,11.38
2023-05-08T15:31:41.302Z,10.98
2023-05-08T15:34:08.889Z,10.77
2023-05-08T15:36:35.334Z,12.13
2023-05-08T15:39:01.794Z,14.65
2023-05-08T15:41:28.232Z,11.95
2023-05-08T15:43:54.693Z,12.68
2023-05-08T15:46:21.221Z,12.00
2023-05-08T15:48:48.289Z,12.02
2023-05-08T15:51:14.817Z,11.45
2023-05-08T15:53:41.440Z,11.55
2023-05-08T15:56:07.858Z,11.50
2023-05-08T15:58:36.536Z,11.82
2023-05-08T16:01:04.766Z,12.18
2023-05-08T16:03:31.983Z,15.48
2023-05-08T16:05:58.477Z,14.70
2023-05-08T16:08:24.945Z,15.23
2023-05-08T16:10:54.223Z,17.00
2023-05-08T16:13:20.824Z,14.05
2023-05-08T16:15:47.593Z,15.48
2023-05-08T16:18:14.086Z,15.52
2023-05-08T16:20:41.669Z,14.70
2023-05-08T16:23:08.356Z,15.52
2023-05-08T16:25:34.834Z,14.00
2023-05-08T16:28:01.276Z,14.20
2023-05-08T16:30:27.651Z,13.90
2023-05-08T16:32:54.191Z,15.25
2023-05-08T16:35:20.764Z,14.35
2023-05-08T16:37:47.234Z,14.25
2023-05-08T16:40:13.933Z,15.52
2023-05-08T16:42:40.436Z,13.25
2023-05-08T16:45:07.986Z,13.18
2023-05-08T16:47:35.056Z,12.85
2023-05-08T16:50:01.522Z,12.90
2023-05-08T16:52:27.958Z,11.73
2023-05-08T16:54:54.435Z,13.05
2023-05-08T16:57:20.864Z,14.25
2023-05-08T16:59:47.270Z,12.35
2023-05-08T17:02:18.539Z,11.80
2023-05-08T17:04:48.882Z,11.10
2023-05-08T17:07:15.819Z,12.45
2023-05-08T17:09:42.377Z,11.85
2023-05-08T17:12:09.277Z,12.07
2023-05-08T17:14:36.919Z,11.85
2023-05-08T17:17:03.355Z,12.20
2023-05-08T17:19:29.838Z,12.70
2023-05-08T17:21:58.175Z,15.25
2023-05-08T17:24:26.087Z,12.57
2023-05-08T17:26:52.492Z,14.75
2023-05-08T17:29:18.885Z,13.63
2023-05-08T17:31:45.319Z,13.30
2023-05-08T17:34:11.807Z,14.02
2023-05-08T17:36:38.496Z,15.70
2023-05-08T17:39:05.071Z,13.77
2023-05-08T17:41:31.529Z,11.55
2023-05-08T17:43:58.025Z,11.18
2023-05-08T17:46:24.540Z,12.13
2023-05-08T17:48:50.967Z,10.77
2023-05-08T17:51:17.395Z,12.50
2023-05-08T17:53:44.103Z,12.23
2023-05-08T17:56:10.954Z,12.07
2023-05-08T17:58:37.357Z,13.95
2023-05-08T18:01:03.850Z,11.35
2023-05-08T18:03:31.735Z,12.93
2023-05-08T18:05:58.215Z,11.73
2023-05-08T18:08:24.662Z,13.02
2023-05-08T18:10:51.171Z,11.73
2023-05-08T18:13:17.745Z,12.98
2023-05-08T18:15:44.340Z,12.20
2023-05-08T18:18:10.934Z,13.27
2023-05-08T18:20:37.429Z,12.60
2023-05-08T18:23:03.904Z,12.45
2023-05-08T18:25:30.488Z,13.48
2023-05-08T18:27:58.987Z,12.48
2023-05-08T18:30:25.429Z,12.90
2023-05-08T18:32:53.183Z,12.55
2023-05-08T18:35:21.570Z,14.60
2023-05-08T18:37:48.122Z,13.25
2023-05-08T18:40:14.961Z,12.68
2023-05-08T18:42:41.637Z,11.73
2023-05-08T18:45:08.889Z,12.07
2023-05-08T18:47:35.531Z,12.73
2023-05-08T18:50:02.199Z,12.77
2023-05-08T18:52:29.001Z,14.00
2023-05-08T18:54:55.507Z,13.18
2023-05-08T18:57:22.095Z,12.43
2023-05-08T18:59:50.294Z,12.63
2023-05-08T19:02:16.742Z,12.60
2023-05-08T19:04:43.250Z,11.82
2023-05-08T19:07:09.752Z,10.77
2023-05-08T19:09:36.233Z,12.50
2023-05-08T19:12:02.756Z,13.48
2023-05-08T19:14:29.155Z,9.85
2023-05-08T19:16:58.285Z,11.68
2023-05-08T19:19:25.002Z,11.63
2023-05-08T19:21:52.589Z,13.48
2023-05-08T19:24:20.822Z,11.45
2023-05-08T19:26:47.465Z,11.23
2023-05-08T19:29:13.848Z,11.55
2023-05-08T19:31:40.469Z,11.98
2023-05-08T19:34:07.092Z,11.05
2023-05-08T19:36:35.494Z,10.90
2023-05-08T19:39:03.636Z,10.23
2023-05-08T19:41:30.158Z,11.35
2023-05-08T19:43:56.577Z,10.15
2023-05-08T19:46:23.151Z,10.40
2023-05-08T19:48:49.659Z,10.65
2023-05-08T19:51:16.613Z,13.13
2023-05-08T19:53:43.165Z,16.40
2023-05-08T19:56:09.614Z,10.32
2023-05-08T19:58:36.062Z,10.38
2023-05-08T20:01:02.671Z,10.30
2023-05-08T20:03:29.312Z,13.02
2023-05-08T20:05:55.919Z,10.20
2023-05-08T20:08:22.429Z,10.27
2023-05-08T20:10:49.127Z,10.10
2023-05-08T20:13:16.978Z,11.70
2023-05-08T20:15:43.625Z,9.90
2023-05-08T20:18:10.280Z,10.05
2023-05-08T20:20:36.777Z,10.35
2023-05-08T20:23:03.303Z,9.48
2023-05-08T20:25:29.783Z,10.35
2023-05-08T20:27:56.239Z,10.02
2023-05-08T20:30:23.863Z,9.70
2023-05-08T20:32:50.589Z,10.27
2023-05-08T20:35:17.081Z,15.23
2023-05-08T20:37:44.922Z,10.82
2023-05-08T20:40:11.981Z,11.18
2023-05-08T20:42:40.536Z,9.80
2023-05-08T20:45:10.289Z,9.50
2023-05-08T20:47:36.812Z,11.27
2023-05-08T20:50:03.809Z,10.10
2023-05-08T20:52:32.171Z,10.07
2023-05-08T20:54:59.265Z,10.38
2023-05-08T20:57:25.880Z,12.07
2023-05-08T20:59:52.385Z,11.00
2023-05-08T21:02:18.830Z,10.95
2023-05-08T21:04:45.334Z,10.35
2023-05-08T21:07:11.856Z,11.18
2023-05-08T21:09:38.331Z,11.38
2023-05-08T21:12:04.921Z,10.48
2023-05-08T21:14:31.385Z,10.93
2023-05-08T21:16:57.828Z,9.73
2023-05-08T21:19:24.338Z,11.25
2023-05-08T21:21:50.823Z,11.15
2023-05-08T21:24:17.480Z,10.27
2023-05-08T21:26:43.890Z,10.90
2023-05-08T21:29:10.903Z,12.38
2023-05-08T21:31:37.450Z,12.88
2023-05-08T21:34:04.037Z,14.52
2023-05-08T21:36:32.014Z,12.85
2023-05-08T21:38:58.521Z,11.98
2023-05-08T21:41:25.071Z,12.52
2023-05-08T21:43:51.481Z,13.45
2023-05-08T21:46:17.962Z,13.52
2023-05-08T21:48:44.406Z,13.35
2023-05-08T21:51:10.911Z,13.57
2023-05-08T21:53:37.449Z,13.63
2023-05-08T21:56:04.182Z,13.80
2023-05-08T21:58:30.695Z,13.05
2023-05-08T22:00:58.678Z,13.07
2023-05-08T22:03:25.642Z,12.35
2023-05-08T22:05:52.244Z,10.90
2023-05-08T22:08:18.715Z,16.33
2023-05-08T22:10:46.142Z,13.20
2023-05-08T22:13:13.252Z,13.27
2023-05-08T22:15:39.769Z,13.00
2023-05-08T22:18:06.322Z,13.73
2023-05-08T22:20:33.322Z,11.65
2023-05-08T22:22:59.771Z,11.63
2023-05-08T22:25:26.711Z,10.57
2023-05-08T22:27:53.272Z,15.25
2023-05-08T22:30:19.848Z,13.52
2023-05-08T22:32:53.935Z,12.68
2023-05-08T22:35:22.465Z,15.90
2023-05-08T22:37:48.893Z,16.17
2023-05-08T22:40:15.412Z,14.90
2023-05-08T22:42:42.363Z,16.73
2023-05-08T22:45:09.865Z,19.65
2023-05-08T22:47:36.439Z,14.25
2023-05-08T22:50:08.292Z,13.68
2023-05-08T22:52:36.182Z,13.57
2023-05-08T22:55:03.247Z,14.57
2023-05-08T22:57:29.723Z,22.10
2023-05-08T22:59:56.252Z,21.40
2023-05-08T23:02:22.879Z,18.35
2023-05-08T23:04:49.513Z,14.45
2023-05-08T23:07:16.092Z,14.00
2023-05-08T23:09:42.473Z,13.18
2023-05-08T23:12:08.943Z,25.63
2023-05-08T23:14:35.492Z,16.45
2023-05-08T23:17:02.110Z,80.82
2023-05-08T23:19:28.642Z,44.47
2023-05-08T23:21:55.071Z,16.90
2023-05-08T23:24:21.545Z,28.40
2023-05-08T23:26:49.580Z,74.50
2023-05-08T23:29:16.032Z,47.92
2023-05-08T23:31:42.480Z,58.00
2023-05-08T23:34:09.166Z,15.38
2023-05-08T23:36:35.845Z,13.75
2023-05-08T23:39:02.397Z,13.60
2023-05-08T23:41:28.903Z,12.90
2023-05-08T23:43:55.957Z,51.60
2023-05-08T23:46:22.410Z,26.13
2023-05-08T23:48:48.883Z,31.50
2023-05-08T23:51:15.300Z,29.80
2023-05-08T23:53:42.292Z,26.48
2023-05-08T23:56:08.766Z,31.27
2023-05-08T23:58:35.225Z,37.50
